createdAt,value
2019-04-11T00:01:53.444Z,56.80
2019-04-11T00:04:26.188Z,57.00
2019-04-11T00:06:58.145Z,57.00
2019-04-11T00:09:30.428Z,56.83
2019-04-11T00:12:02.273Z,56.66
2019-04-11T00:14:34.397Z,56.73
2019-04-11T00:17:06.118Z,56.81
2019-04-11T00:19:38.175Z,56.85
2019-04-11T00:22:11.024Z,56.60
2019-04-11T00:24:43.347Z,56.48
2019-04-11T00:27:15.082Z,56.14
2019-04-11T00:29:47.320Z,56.00
2019-04-11T00:32:19.232Z,56.07
2019-04-11T00:34:51.241Z,55.63
2019-04-11T00:37:23.247Z,55.80
2019-04-11T00:39:56.292Z,55.67
2019-04-11T00:42:30.421Z,55.60
2019-04-11T00:45:03.426Z,55.25
2019-04-11T00:47:38.155Z,55.54
2019-04-11T00:50:12.696Z,55.82
2019-04-11T00:52:45.635Z,56.02
2019-04-11T00:55:17.761Z,56.14
2019-04-11T00:57:50.637Z,56.31
2019-04-11T01:00:23.346Z,56.21
2019-04-11T01:02:55.892Z,56.49
2019-04-11T01:05:27.751Z,56.51
2019-04-11T01:07:59.740Z,56.77
2019-04-11T01:10:32.029Z,56.93
2019-04-11T01:13:04.983Z,57.20
2019-04-11T01:15:39.081Z,57.42
2019-04-11T01:18:11.904Z,57.60
2019-04-11T01:20:44.183Z,57.67
2019-04-11T01:23:16.205Z,57.63
2019-04-11T01:25:48.723Z,58.24
2019-04-11T01:28:20.954Z,58.21
2019-04-11T01:31:06.443Z,58.53
2019-04-11T01:33:38.375Z,58.72
2019-04-11T01:36:12.182Z,59.45
2019-04-11T01:38:48.401Z,59.78
2019-04-11T01:41:20.533Z,59.85
2019-04-11T01:44:00.993Z,59.72
2019-04-11T01:46:29.826Z,59.92
2019-04-11T01:49:17.537Z,60.32
2019-04-11T01:51:49.934Z,60.39
2019-04-11T01:54:21.848Z,60.39
2019-04-11T01:56:54.210Z,61.26
2019-04-11T01:59:27.243Z,61.37
2019-04-11T02:02:09.567Z,61.59
2019-04-11T02:04:46.059Z,61.81
2019-04-11T02:07:18.820Z,61.81
2019-04-11T02:09:50.704Z,62.01
2019-04-11T02:12:23.505Z,62.25
2019-04-11T02:14:55.581Z,62.37
2019-04-11T02:17:27.711Z,63.04
2019-04-11T02:20:00.626Z,63.24
2019-04-11T02:23:04.551Z,63.22
2019-04-11T02:25:52.533Z,63.97
2019-04-11T02:28:24.673Z,64.58
2019-04-11T02:30:57.531Z,64.66
2019-04-11T02:33:30.651Z,65.11
2019-04-11T02:36:04.601Z,65.30
2019-04-11T02:38:37.507Z,65.79
2019-04-11T02:41:12.465Z,65.92
2019-04-11T02:43:46.699Z,65.88
2019-04-11T02:46:28.337Z,66.16
2019-04-11T02:48:52.327Z,66.26
2019-04-11T02:51:26.849Z,66.61
2019-04-11T02:53:59.398Z,67.21
2019-04-11T02:56:33.438Z,67.37
2019-04-11T02:59:05.523Z,67.27
2019-04-11T03:01:39.849Z,67.45
2019-04-11T03:04:12.933Z,67.45
2019-04-11T03:06:45.773Z,67.32
2019-04-11T03:09:19.540Z,67.89
2019-04-11T03:11:51.611Z,68.03
2019-04-11T03:14:25.066Z,68.36
2019-04-11T03:17:08.419Z,68.66
2019-04-11T03:19:43.935Z,68.52
2019-04-11T03:22:05.833Z,68.50
2019-04-11T03:24:38.644Z,68.66
2019-04-11T03:27:11.960Z,68.96
2019-04-11T03:29:45.816Z,68.71
2019-04-11T03:33:02.225Z,68.85
2019-04-11T03:35:45.726Z,69.37
2019-04-11T03:37:54.039Z,69.25
2019-04-11T03:40:22.473Z,69.29
2019-04-11T03:42:46.259Z,69.53
2019-04-11T03:45:27.516Z,69.50
2019-04-11T03:47:57.666Z,69.49
2019-04-11T03:50:17.460Z,69.82
2019-04-11T03:52:49.546Z,69.93
2019-04-11T03:55:23.385Z,70.83
2019-04-11T03:57:56.774Z,70.94
2019-04-11T04:00:34.040Z,71.29
2019-04-11T04:03:04.605Z,71.47
2019-04-11T04:05:38.619Z,71.67
2019-04-11T04:08:10.886Z,71.79
2019-04-11T04:11:03.844Z,71.84
2019-04-11T04:13:39.111Z,72.03
2019-04-11T04:16:27.479Z,72.22
2019-04-11T04:19:20.298Z,72.03
2019-04-11T04:22:07.945Z,73.00
2019-04-11T04:24:41.322Z,73.42
2019-04-11T04:27:15.306Z,73.67
2019-04-11T04:29:51.258Z,73.60
2019-04-11T04:32:22.736Z,73.94
2019-04-11T04:34:56.322Z,74.24
2019-04-11T04:37:29.612Z,74.32
2019-04-11T04:40:19.419Z,74.43
2019-04-11T04:42:40.390Z,75.25
2019-04-11T04:45:10.121Z,75.55
2019-04-11T04:47:48.961Z,75.50
2019-04-11T04:50:18.190Z,75.28
2019-04-11T04:52:51.542Z,75.72
2019-04-11T04:55:25.817Z,76.15
2019-04-11T04:57:58.231Z,75.71
2019-04-11T05:00:32.161Z,75.87
2019-04-11T05:03:05.472Z,75.92
2019-04-11T05:05:38.265Z,75.77
2019-04-11T05:08:11.184Z,76.01
2019-04-11T05:10:44.965Z,76.12
2019-04-11T05:13:17.493Z,75.90
2019-04-11T05:16:02.865Z,76.11
2019-04-11T05:18:23.687Z,76.28
2019-04-11T05:20:56.978Z,76.27
2019-04-11T05:23:29.702Z,76.57
2019-04-11T05:26:01.689Z,76.84
2019-04-11T05:28:33.262Z,77.29
2019-04-11T05:31:06.178Z,77.40
2019-04-11T05:33:39.106Z,77.33
2019-04-11T05:36:10.845Z,77.14
2019-04-11T05:38:42.542Z,77.41
2019-04-11T05:41:15.289Z,77.55
2019-04-11T05:43:49.642Z,78.01
2019-04-11T05:46:31.064Z,77.70
2019-04-11T05:49:13.487Z,77.80
2019-04-11T05:51:58.150Z,77.87
2019-04-11T05:54:33.210Z,78.14
2019-04-11T05:57:07.054Z,78.20
2019-04-11T05:59:39.582Z,78.59
2019-04-11T06:02:21.503Z,78.25
2019-04-11T06:05:02.844Z,78.70
2019-04-11T06:07:57.258Z,78.84
2019-04-11T06:10:31.654Z,79.21
2019-04-11T06:13:16.411Z,79.81
2019-04-11T06:15:51.396Z,79.62
2019-04-11T06:18:44.729Z,81.09
2019-04-11T06:21:49.024Z,81.71
2019-04-11T06:24:45.805Z,81.54
2019-04-11T06:27:31.190Z,80.83
2019-04-11T06:30:17.914Z,80.25
2019-04-11T06:32:58.517Z,80.04
2019-04-11T06:35:42.079Z,79.82
2019-04-11T06:38:48.013Z,80.67
2019-04-11T06:41:54.830Z,80.64
2019-04-11T06:45:02.589Z,81.35
2019-04-11T06:47:53.512Z,81.17
2019-04-11T06:50:39.825Z,81.28
2019-04-11T06:53:13.389Z,81.60
2019-04-11T06:56:04.226Z,81.11
2019-04-11T06:58:39.828Z,80.99
2019-04-11T07:01:16.149Z,81.03
2019-04-11T07:03:51.629Z,80.71
2019-04-11T07:06:27.287Z,80.70
2019-04-11T07:09:27.166Z,81.56
2019-04-11T07:12:03.955Z,81.30
2019-04-11T07:14:50.146Z,80.67
2019-04-11T07:17:40.337Z,80.75
2019-04-11T07:20:37.862Z,80.76
2019-04-11T07:23:28.427Z,80.70
2019-04-11T07:26:31.442Z,80.45
2019-04-11T07:29:23.921Z,80.49
2019-04-11T07:32:16.158Z,80.61
2019-04-11T07:35:05.755Z,80.33
2019-04-11T07:37:44.877Z,80.40
2019-04-11T07:40:35.276Z,80.80
2019-04-11T07:43:19.054Z,81.40
2019-04-11T07:46:09.987Z,81.32
2019-04-11T07:48:42.680Z,80.87
2019-04-11T07:51:34.353Z,81.00
2019-04-11T07:54:13.739Z,80.91
2019-04-11T07:56:58.677Z,81.04
2019-04-11T08:00:04.411Z,81.72
2019-04-11T08:03:01.928Z,81.70
2019-04-11T08:05:56.617Z,81.98
2019-04-11T08:08:51.399Z,82.51
2019-04-11T08:11:48.231Z,82.04
2019-04-11T08:14:38.341Z,81.52
2019-04-11T08:17:36.850Z,81.23
2019-04-11T08:20:25.640Z,81.06
2019-04-11T08:23:08.226Z,81.62
2019-04-11T08:25:55.728Z,82.29
2019-04-11T08:28:28.850Z,81.97
2019-04-11T08:31:28.939Z,81.82
2019-04-11T08:34:04.959Z,82.33
2019-04-11T08:36:54.904Z,82.01
2019-04-11T08:39:35.309Z,81.62
2019-04-11T08:42:25.406Z,81.54
2019-04-11T08:44:58.523Z,82.16
2019-04-11T08:47:46.816Z,81.43
2019-04-11T08:50:16.403Z,81.70
2019-04-11T08:53:07.269Z,81.74
2019-04-11T08:55:56.230Z,83.02
2019-04-11T08:58:47.395Z,84.63
2019-04-11T09:01:20.382Z,85.66
2019-04-11T09:04:15.284Z,85.19
2019-04-11T09:06:47.394Z,85.85
2019-04-11T09:09:36.247Z,85.88
2019-04-11T09:12:11.993Z,85.34
2019-04-11T09:15:14.878Z,85.56
2019-04-11T09:17:58.918Z,86.35
2019-04-11T09:20:41.748Z,85.29
2019-04-11T09:23:15.813Z,85.94
2019-04-11T09:26:05.121Z,85.71
2019-04-11T09:28:42.106Z,85.37
2019-04-11T09:31:36.301Z,86.08
2019-04-11T09:34:25.934Z,85.93
2019-04-11T09:37:13.650Z,85.61
2019-04-11T09:40:05.804Z,85.92
2019-04-11T09:42:47.181Z,85.56
2019-04-11T09:45:37.531Z,86.46
2019-04-11T09:48:44.389Z,87.21
2019-04-11T09:51:54.091Z,87.20
2019-04-11T09:55:03.047Z,87.60
2019-04-11T09:57:37.648Z,86.96
2019-04-11T10:00:28.941Z,87.19
2019-04-11T10:03:04.408Z,87.58
2019-04-11T10:05:58.704Z,87.04
2019-04-11T10:08:37.478Z,87.09
2019-04-11T10:11:43.314Z,86.99
2019-04-11T10:14:19.729Z,86.82
2019-04-11T10:17:10.672Z,86.27
2019-04-11T10:19:48.703Z,86.59
2019-04-11T10:22:50.392Z,86.56
2019-04-11T10:25:35.176Z,85.79
2019-04-11T10:28:27.150Z,84.78
2019-04-11T10:31:08.524Z,83.39
2019-04-11T10:33:59.611Z,82.01
2019-04-11T10:36:51.505Z,81.34
2019-04-11T10:39:42.176Z,80.03
2019-04-11T10:42:15.590Z,79.09
2019-04-11T10:45:06.737Z,78.47
2019-04-11T10:47:40.816Z,77.41
2019-04-11T10:50:32.247Z,76.93
2019-04-11T10:53:05.326Z,76.24
2019-04-11T10:55:56.354Z,75.87
2019-04-11T10:58:51.129Z,75.73
2019-04-11T11:01:50.880Z,75.53
2019-04-11T11:04:27.492Z,75.30
2019-04-11T11:07:10.194Z,75.20
2019-04-11T11:09:52.947Z,74.58
2019-04-11T11:12:38.857Z,74.21
2019-04-11T11:15:17.713Z,73.34
2019-04-11T11:21:05.481Z,73.59
2019-04-11T11:23:54.396Z,73.05
2019-04-11T11:26:35.693Z,72.77
2019-04-11T11:29:26.513Z,71.90
2019-04-11T11:32:03.026Z,71.70
2019-04-11T11:34:52.331Z,71.61
2019-04-11T11:37:42.702Z,71.76
2019-04-11T11:40:52.096Z,71.19
2019-04-11T11:43:29.330Z,71.19
2019-04-11T11:46:25.564Z,71.09
2019-04-11T11:49:12.276Z,70.72
2019-04-11T11:52:08.984Z,70.75
2019-04-11T11:54:48.056Z,70.30
2019-04-11T11:57:44.910Z,69.94
2019-04-11T12:00:23.466Z,69.27
2019-04-11T12:03:02.389Z,69.06
2019-04-11T12:05:45.616Z,70.13
2019-04-11T12:08:45.257Z,70.00
2019-04-11T12:11:15.719Z,70.02
2019-04-11T12:14:12.039Z,69.30
2019-04-11T12:17:01.349Z,69.33
2019-04-11T12:19:47.319Z,68.86
2019-04-11T12:22:10.820Z,68.76
2019-04-11T12:24:45.269Z,68.51
2019-04-11T12:27:41.563Z,68.60
2019-04-11T12:30:26.602Z,68.17
2019-04-11T12:33:17.319Z,67.42
2019-04-11T12:36:09.922Z,67.14
2019-04-11T12:39:00.780Z,66.81
2019-04-11T12:41:42.774Z,66.82
2019-04-11T12:44:51.952Z,66.85
2019-04-11T12:47:44.965Z,66.97
2019-04-11T12:50:39.831Z,67.04
2019-04-11T12:53:16.806Z,66.24
2019-04-11T12:56:06.100Z,66.19
2019-04-11T12:58:43.634Z,66.10
2019-04-11T13:01:43.200Z,65.88
2019-04-11T13:04:37.463Z,65.29
2019-04-11T13:07:28.081Z,65.51
2019-04-11T13:10:06.569Z,66.14
2019-04-11T13:12:45.459Z,66.69
2019-04-11T13:15:37.088Z,66.57
2019-04-11T13:18:26.723Z,66.44
2019-04-11T13:21:11.780Z,66.94
2019-04-11T13:24:11.623Z,66.60
2019-04-11T13:27:18.664Z,66.05
2019-04-11T13:30:14.160Z,66.32
2019-04-11T13:33:08.977Z,66.39
2019-04-11T13:36:05.754Z,66.64
2019-04-11T13:38:51.679Z,66.60
2019-04-11T13:41:41.279Z,67.41
2019-04-11T13:44:21.829Z,67.17
2019-04-11T13:47:12.345Z,67.18
2019-04-11T13:50:04.204Z,68.17
2019-04-11T13:53:04.623Z,68.10
2019-04-11T13:55:39.094Z,67.59
2019-04-11T13:58:38.807Z,67.32
2019-04-11T14:01:15.634Z,67.39
2019-04-11T14:04:03.023Z,69.27
2019-04-11T14:06:36.950Z,69.06
2019-04-11T14:09:30.510Z,69.05
2019-04-11T14:12:05.006Z,68.71
2019-04-11T14:14:41.953Z,68.52
2019-04-11T14:17:29.615Z,67.77
2019-04-11T14:20:28.542Z,68.35
2019-04-11T14:23:13.791Z,68.37
2019-04-11T14:26:11.285Z,67.83
2019-04-11T14:28:46.490Z,68.32
2019-04-11T14:31:33.149Z,67.94
2019-04-11T14:34:23.679Z,68.04
2019-04-11T14:37:23.755Z,68.15
2019-04-11T14:40:03.796Z,68.45
2019-04-11T14:42:54.808Z,68.72
2019-04-11T14:45:50.225Z,69.44
2019-04-11T14:48:34.464Z,69.73
2019-04-11T14:51:18.493Z,70.18
2019-04-11T14:54:11.968Z,70.79
2019-04-11T14:56:48.012Z,71.08
2019-04-11T14:59:38.836Z,71.35
2019-04-11T15:02:17.960Z,71.59
2019-04-11T15:05:18.345Z,71.87
2019-04-11T15:07:50.535Z,72.29
2019-04-11T15:10:39.949Z,73.06
2019-04-11T15:13:24.299Z,73.44
2019-04-11T15:16:27.091Z,73.89
2019-04-11T15:19:01.553Z,73.24
2019-04-11T15:21:50.886Z,73.70
2019-04-11T15:24:23.485Z,74.15
2019-04-11T15:27:32.156Z,73.87
2019-04-11T15:30:06.141Z,74.29
2019-04-11T15:32:59.902Z,74.29
2019-04-11T15:35:31.691Z,74.28
2019-04-11T15:38:23.315Z,74.75
2019-04-11T15:40:59.046Z,75.09
2019-04-11T15:43:51.508Z,75.16
2019-04-11T15:46:25.598Z,75.45
2019-04-11T15:49:21.218Z,75.09
2019-04-11T15:52:07.110Z,75.62
2019-04-11T15:54:58.621Z,75.63
2019-04-11T15:57:43.612Z,75.90
2019-04-11T16:00:50.602Z,75.92
2019-04-11T16:03:24.779Z,75.91
2019-04-11T16:06:14.221Z,75.83
2019-04-11T16:08:50.686Z,75.69
2019-04-11T16:11:46.352Z,75.49
2019-04-11T16:14:20.733Z,75.49
2019-04-11T16:17:01.671Z,76.00
2019-04-11T16:19:52.474Z,76.33
2019-04-11T16:22:58.410Z,76.37
2019-04-11T16:25:30.173Z,76.70
2019-04-11T16:28:30.362Z,77.13
2019-04-11T16:31:02.516Z,77.26
2019-04-11T16:33:56.099Z,77.62
2019-04-11T16:36:47.224Z,77.25
2019-04-11T16:39:52.030Z,77.36
2019-04-11T16:42:37.923Z,77.21
2019-04-11T16:45:32.224Z,77.16
2019-04-11T16:48:02.866Z,77.22
2019-04-11T16:50:34.898Z,76.63
2019-04-11T16:53:10.682Z,76.72
2019-04-11T16:55:43.197Z,76.65
2019-04-11T16:58:16.988Z,76.64
2019-04-11T17:00:52.063Z,76.52
2019-04-11T17:03:24.751Z,76.53
2019-04-11T17:06:03.105Z,76.56
2019-04-11T17:08:56.124Z,76.21
2019-04-11T17:11:29.024Z,75.86
2019-04-11T17:14:00.973Z,75.78
2019-04-11T17:16:32.665Z,75.76
2019-04-11T17:19:05.526Z,75.82
2019-04-11T17:21:43.517Z,75.89
2019-04-11T17:24:16.724Z,75.92
2019-04-11T17:26:46.497Z,76.22
2019-04-11T17:29:20.254Z,76.22
2019-04-11T17:31:55.694Z,77.08
2019-04-11T17:34:25.282Z,76.96
2019-04-11T17:36:56.838Z,77.07
2019-04-11T17:39:28.638Z,77.43
2019-04-11T17:42:00.945Z,77.82
2019-04-11T17:44:33.185Z,78.09
2019-04-11T17:47:05.962Z,78.26
2019-04-11T17:49:37.638Z,78.08
2019-04-11T17:52:10.492Z,77.76
2019-04-11T17:54:42.188Z,77.63
2019-04-11T17:57:14.502Z,77.35
2019-04-11T17:59:48.662Z,78.03
2019-04-11T18:02:20.430Z,78.03
2019-04-11T18:04:52.241Z,78.10
2019-04-11T18:07:24.077Z,78.28
2019-04-11T18:09:56.764Z,78.47
2019-04-11T18:12:28.642Z,78.46
2019-04-11T18:15:02.357Z,78.83
2019-04-11T18:17:35.583Z,78.89
2019-04-11T18:20:07.615Z,79.04
2019-04-11T18:22:39.898Z,79.32
2019-04-11T18:25:11.899Z,79.51
2019-04-11T18:27:43.608Z,79.59
2019-04-11T18:30:17.389Z,79.33
2019-04-11T18:32:49.722Z,79.46
2019-04-11T18:35:21.683Z,79.89
2019-04-11T18:37:53.662Z,80.06
2019-04-11T18:40:25.502Z,80.33
2019-04-11T18:42:58.449Z,80.33
2019-04-11T18:45:30.341Z,80.55
2019-04-11T18:48:02.194Z,80.68
2019-04-11T18:50:34.657Z,80.76
2019-04-11T18:53:06.431Z,80.68
2019-04-11T18:55:38.434Z,81.08
2019-04-11T18:58:10.558Z,81.03
2019-04-11T19:00:42.742Z,81.22
2019-04-11T19:03:14.788Z,81.30
2019-04-11T19:05:46.366Z,81.16
2019-04-11T19:08:18.329Z,81.07
2019-04-11T19:10:52.179Z,80.92
2019-04-11T19:13:23.997Z,80.89
2019-04-11T19:15:56.039Z,80.90
2019-04-11T19:18:28.010Z,80.90
2019-04-11T19:21:00.482Z,80.98
2019-04-11T19:23:32.457Z,81.06
2019-04-11T19:26:04.286Z,81.25
2019-04-11T19:28:36.220Z,81.47
2019-04-11T19:31:12.176Z,81.45
2019-04-11T19:33:44.349Z,81.63
2019-04-11T19:36:16.031Z,81.77
2019-04-11T19:38:47.978Z,81.83
2019-04-11T19:41:19.770Z,81.92
2019-04-11T19:43:51.550Z,81.97
2019-04-11T19:46:23.392Z,82.08
2019-04-11T19:48:59.056Z,82.08
2019-04-11T19:51:29.536Z,81.99
2019-04-11T19:54:03.300Z,81.95
2019-04-11T19:56:42.783Z,81.87
2019-04-11T19:59:14.331Z,81.94
2019-04-11T20:01:45.994Z,81.87
2019-04-11T20:04:21.733Z,83.36
2019-04-11T20:06:53.904Z,82.13
2019-04-11T20:09:25.639Z,82.21
2019-04-11T20:11:57.956Z,82.39
2019-04-11T20:14:34.041Z,81.69
2019-04-11T20:17:04.179Z,81.67
2019-04-11T20:19:35.860Z,82.03
2019-04-11T20:22:09.206Z,81.76
2019-04-11T20:24:45.927Z,81.69
2019-04-11T20:27:15.012Z,81.80
2019-04-11T20:29:50.978Z,81.65
2019-04-11T20:32:22.013Z,81.59
2019-04-11T20:34:53.990Z,81.48
2019-04-11T20:37:25.646Z,81.50
2019-04-11T20:39:57.994Z,81.68
2019-04-11T20:42:29.749Z,81.87
2019-04-11T20:45:02.006Z,82.06
2019-04-11T20:47:35.622Z,81.78
2019-04-11T20:50:09.018Z,81.63
2019-04-11T20:52:40.932Z,81.84
2019-04-11T20:55:13.112Z,82.46
2019-04-11T20:57:45.316Z,83.61
2019-04-11T21:00:18.240Z,84.50
2019-04-11T21:02:50.180Z,84.16
2019-04-11T21:05:22.080Z,84.08
2019-04-11T21:07:53.914Z,83.94
2019-04-11T21:10:25.813Z,83.66
2019-04-11T21:12:57.860Z,83.97
2019-04-11T21:15:29.784Z,83.56
2019-04-11T21:18:02.214Z,83.09
2019-04-11T21:20:35.092Z,82.86
2019-04-11T21:23:07.152Z,82.90
2019-04-11T21:25:38.789Z,82.81
2019-04-11T21:28:10.419Z,82.90
2019-04-11T21:30:42.292Z,83.09
2019-04-11T21:33:14.279Z,82.98
2019-04-11T21:35:46.270Z,83.00
2019-04-11T21:38:18.134Z,82.86
2019-04-11T21:40:51.425Z,82.72
2019-04-11T21:43:23.659Z,82.59
2019-04-11T21:45:55.805Z,82.51
2019-04-11T21:48:29.633Z,82.40
2019-04-11T21:51:01.432Z,81.83
2019-04-11T21:53:36.818Z,81.97
2019-04-11T21:56:06.760Z,81.63
2019-04-11T21:58:38.861Z,81.47
2019-04-11T22:01:14.084Z,81.48
2019-04-11T22:03:47.474Z,81.59
2019-04-11T22:06:21.247Z,81.71
2019-04-11T22:08:53.136Z,81.88
2019-04-11T22:11:24.831Z,81.98
2019-04-11T22:13:56.451Z,82.43
2019-04-11T22:16:28.014Z,83.11
2019-04-11T22:19:00.066Z,82.26
2019-04-11T22:21:32.023Z,81.22
2019-04-11T22:24:03.837Z,80.34
2019-04-11T22:26:36.451Z,79.91
2019-04-11T22:29:08.103Z,79.77
2019-04-11T22:31:40.223Z,79.68
2019-04-11T22:34:22.363Z,80.31
2019-04-11T22:36:54.286Z,80.31
